Time;durP1;ratioP1;P1;durP2;ratioP2;P2;SDS_P1;SDS_P2;PMS_P1;PMS_P2;Temp;Humidity;BMP_temperature;BMP_pressure;BME280_temperature;BME280_humidity;BME280_pressure;Samples;Min_cycle;Max_cycle;Signal;HPM_P1;HPM_P2
2023/04/03 00:01:32;;;;;;;18.20;10.57;;;13.50;91.50;;;;;;6094478;23;20174;-75
2023/04/03 00:04:00;;;;;;;18.90;10.03;;;13.60;91.50;;;;;;6095748;23;20170;-75
2023/04/03 00:06:29;;;;;;;18.07;10.57;;;13.50;91.50;;;;;;6094414;23;20177;-75
2023/04/03 00:08:57;;;;;;;14.83;9.87;;;13.50;91.50;;;;;;6092284;23;20186;-76
2023/04/03 00:11:26;;;;;;;16.93;9.80;;;13.50;91.50;;;;;;6095036;23;20257;-75
2023/04/03 00:13:55;;;;;;;17.63;12.30;;;13.50;91.50;;;;;;6095139;23;20178;-75
2023/04/03 00:16:24;;;;;;;18.33;13.30;;;13.50;91.50;;;;;;6094966;23;20678;-75
2023/04/03 00:18:52;;;;;;;19.63;12.10;;;13.40;91.40;;;;;;6094823;23;20174;-75
2023/04/03 00:21:20;;;;;;;19.27;12.40;;;13.40;91.50;;;;;;6091452;23;20291;-76
2023/04/03 00:23:49;;;;;;;19.07;12.33;;;13.40;91.50;;;;;;6091683;23;20248;-75
2023/04/03 00:26:17;;;;;;;17.77;11.93;;;13.40;91.50;;;;;;6093707;23;20182;-75
2023/04/03 00:28:45;;;;;;;16.93;11.10;;;13.40;91.50;;;;;;6094327;23;20174;-75
2023/04/03 00:31:17;;;;;;;14.03;10.40;;;13.30;91.40;;;;;;6093752;23;20201;-75
2023/04/03 00:33:45;;;;;;;17.70;11.10;;;13.30;91.40;;;;;;6094234;23;20925;-75
2023/04/03 00:36:14;;;;;;;16.63;11.40;;;13.30;91.40;;;;;;6091968;23;20240;-75
2023/04/03 00:38:42;;;;;;;15.80;11.00;;;13.30;91.40;;;;;;6090468;23;20178;-75
2023/04/03 00:41:11;;;;;;;17.23;10.87;;;13.30;91.40;;;;;;6094060;23;20174;-75
2023/04/03 00:43:39;;;;;;;17.20;10.77;;;13.30;91.40;;;;;;6092453;23;20229;-75
2023/04/03 00:46:07;;;;;;;15.53;10.40;;;13.30;91.30;;;;;;6092413;23;20178;-75
2023/04/03 00:48:40;;;;;;;15.43;10.10;;;13.30;91.40;;;;;;6092949;23;20253;-76
2023/04/03 00:51:13;;;;;;;16.60;10.23;;;13.30;91.40;;;;;;6092405;23;20186;-76
2023/04/03 00:53:45;;;;;;;17.70;11.00;;;13.30;91.40;;;;;;6093042;23;20158;-76
2023/04/03 00:56:18;;;;;;;17.37;10.30;;;13.30;91.40;;;;;;6090276;23;20166;-76
2023/04/03 00:58:50;;;;;;;15.33;10.07;;;13.30;91.30;;;;;;6092766;23;20587;-75
2023/04/03 01:01:23;;;;;;;15.73;10.60;;;13.30;91.30;;;;;;6091772;23;20165;-75
2023/04/03 01:03:53;;;;;;;16.50;10.10;;;13.30;91.30;;;;;;6090372;23;20194;-75
2023/04/03 01:06:27;;;;;;;13.77;9.17;;;13.30;91.30;;;;;;6092369;23;20649;-75
2023/04/03 01:08:56;;;;;;;19.17;9.17;;;13.20;91.20;;;;;;6091007;23;20166;-76
2023/04/03 01:11:24;;;;;;;13.00;9.43;;;13.20;91.20;;;;;;6089478;23;20844;-75
2023/04/03 01:13:53;;;;;;;14.50;9.40;;;13.20;91.10;;;;;;6091714;23;20555;-77
2023/04/03 01:16:21;;;;;;;13.40;9.40;;;13.20;91.10;;;;;;6076697;23;20178;-75
2023/04/03 01:18:50;;;;;;;13.97;9.57;;;13.20;91.10;;;;;;6093971;23;20690;-75
2023/04/03 01:22:04;;;;;;;15.27;9.63;;;13.10;91.10;;;;;;6092575;23;20178;-75
2023/04/03 01:24:38;;;;;;;13.47;9.50;;;13.10;91.10;;;;;;6023417;23;20173;-75
2023/04/03 01:27:10;;;;;;;14.90;9.10;;;13.10;91.00;;;;;;6090900;23;20161;-75
2023/04/03 01:29:39;;;;;;;14.10;9.33;;;13.00;91.00;;;;;;6090286;23;20548;-77
2023/04/03 01:32:09;;;;;;;12.93;8.20;;;13.00;91.00;;;;;;6091320;23;20511;-76
2023/04/03 01:34:38;;;;;;;14.63;9.27;;;13.00;91.00;;;;;;6094140;23;20241;-75
2023/04/03 01:37:06;;;;;;;13.53;8.77;;;13.00;91.00;;;;;;6091115;23;20170;-76
2023/04/03 01:39:34;;;;;;;14.10;8.27;;;12.90;90.90;;;;;;6093376;23;20178;-75
2023/04/03 01:42:03;;;;;;;15.17;8.60;;;12.90;90.90;;;;;;6091153;23;20178;-75
2023/04/03 01:44:31;;;;;;;15.43;8.70;;;12.90;90.90;;;;;;6092077;23;20174;-75
2023/04/03 01:47:00;;;;;;;15.33;9.33;;;12.90;90.90;;;;;;6091929;23;20178;-75
2023/04/03 01:49:30;;;;;;;13.73;8.60;;;12.90;90.90;;;;;;6094899;23;20231;-75
2023/04/03 01:51:58;;;;;;;17.50;8.97;;;12.80;90.90;;;;;;6093684;23;20197;-77
2023/04/03 01:54:26;;;;;;;14.70;8.90;;;12.80;90.90;;;;;;6094545;23;20181;-76
2023/04/03 01:56:54;;;;;;;14.03;8.93;;;12.80;90.90;;;;;;6092117;23;20233;-75
2023/04/03 01:59:23;;;;;;;13.13;9.17;;;12.80;90.90;;;;;;6094267;23;20209;-75
2023/04/03 02:01:51;;;;;;;14.13;9.17;;;12.80;90.90;;;;;;6092781;23;20173;-76
2023/04/03 02:04:20;;;;;;;16.83;9.47;;;12.70;91.00;;;;;;6093692;23;20175;-76
2023/04/03 02:06:49;;;;;;;14.70;9.17;;;12.70;91.10;;;;;;6092734;23;20185;-75
2023/04/03 02:09:18;;;;;;;13.80;8.80;;;12.70;91.30;;;;;;6091782;23;20173;-75
2023/04/03 02:11:46;;;;;;;13.67;8.80;;;12.70;91.50;;;;;;6093335;23;20201;-76
2023/04/03 02:14:14;;;;;;;15.20;10.47;;;12.70;91.70;;;;;;6093865;23;20245;-76
2023/04/03 02:16:43;;;;;;;15.20;9.70;;;12.60;91.90;;;;;;6093390;23;20181;-76
2023/04/03 02:19:11;;;;;;;16.83;10.10;;;12.70;92.10;;;;;;6093739;23;20205;-76
2023/04/03 02:21:39;;;;;;;14.23;8.93;;;12.70;92.50;;;;;;6092915;23;20221;-75
2023/04/03 02:24:09;;;;;;;17.33;9.83;;;12.60;92.60;;;;;;6093198;23;20186;-75
2023/04/03 02:26:38;;;;;;;15.40;9.57;;;12.60;92.60;;;;;;6093224;23;20620;-77
2023/04/03 02:29:06;;;;;;;16.80;10.07;;;12.60;92.60;;;;;;6088882;23;20714;-75
2023/04/03 02:31:34;;;;;;;15.70;10.10;;;12.60;92.60;;;;;;6093057;23;20194;-76
2023/04/03 02:34:03;;;;;;;14.90;10.23;;;12.70;93.00;;;;;;6093062;23;20705;-75
2023/04/03 02:36:31;;;;;;;18.60;11.57;;;12.70;92.90;;;;;;6092315;23;20178;-76
2023/04/03 02:39:00;;;;;;;21.40;11.53;;;12.60;92.90;;;;;;6089934;23;20256;-75
2023/04/03 02:41:34;;;;;;;19.17;11.33;;;12.70;92.90;;;;;;6089546;23;20180;-76
2023/04/03 02:44:04;;;;;;;19.23;11.83;;;12.60;92.80;;;;;;6091587;23;20168;-75
2023/04/03 02:46:32;;;;;;;16.83;10.90;;;12.60;92.90;;;;;;6091304;23;20229;-75
2023/04/03 02:49:01;;;;;;;18.47;12.33;;;12.60;93.00;;;;;;6092900;23;20174;-75
2023/04/03 02:51:29;;;;;;;14.93;10.20;;;12.60;93.00;;;;;;6091191;23;20531;-74
2023/04/03 02:53:57;;;;;;;14.30;10.10;;;12.60;93.00;;;;;;6092817;23;20174;-75
2023/04/03 02:56:26;;;;;;;15.37;10.53;;;12.50;92.90;;;;;;6088106;23;20631;-76
2023/04/03 02:58:56;;;;;;;16.70;10.77;;;12.50;92.90;;;;;;6091735;23;20201;-78
2023/04/03 03:01:26;;;;;;;17.17;10.63;;;12.50;92.90;;;;;;6088364;23;20764;-77
2023/04/03 03:03:55;;;;;;;15.13;9.87;;;12.50;92.90;;;;;;6091390;23;20225;-75
2023/04/03 03:06:24;;;;;;;18.53;10.83;;;12.50;93.00;;;;;;6090796;23;20177;-75
2023/04/03 03:08:52;;;;;;;17.87;10.90;;;12.50;93.00;;;;;;6093890;23;20170;-76
2023/04/03 03:11:21;;;;;;;16.33;10.80;;;12.50;93.10;;;;;;6088711;23;20228;-77
2023/04/03 03:13:49;;;;;;;20.43;10.77;;;12.50;93.10;;;;;;6089911;23;20178;-75
2023/04/03 03:16:19;;;;;;;15.30;10.17;;;12.50;93.00;;;;;;6091596;23;20213;-75
2023/04/03 03:18:48;;;;;;;15.30;9.97;;;12.40;92.80;;;;;;6089888;23;20179;-75
2023/04/03 03:21:16;;;;;;;18.73;10.40;;;12.40;92.80;;;;;;6091926;23;20632;-75
2023/04/03 03:23:44;;;;;;;16.40;10.50;;;12.50;92.80;;;;;;6092009;23;20705;-75
2023/04/03 03:26:13;;;;;;;16.33;10.53;;;12.40;92.70;;;;;;6094387;23;20174;-75
2023/04/03 03:28:41;;;;;;;18.80;11.60;;;12.40;92.70;;;;;;6094346;23;20174;-76
2023/04/03 03:31:12;;;;;;;17.43;11.33;;;12.40;92.60;;;;;;6092046;23;20182;-75
2023/04/03 03:33:41;;;;;;;17.60;10.03;;;12.40;92.60;;;;;;6096412;23;20170;-75
2023/04/03 03:36:10;;;;;;;17.93;10.53;;;12.40;92.50;;;;;;6094118;23;20700;-76
2023/04/03 03:38:38;;;;;;;21.10;11.70;;;12.30;92.80;;;;;;6095848;23;20170;-75
2023/04/03 03:41:07;;;;;;;19.10;11.17;;;12.30;92.40;;;;;;6093288;23;20170;-75
2023/04/03 03:43:35;;;;;;;19.63;11.17;;;12.30;92.30;;;;;;6093789;23;20173;-75
2023/04/03 03:46:03;;;;;;;19.50;11.70;;;12.30;92.30;;;;;;6094455;23;20214;-75
2023/04/03 03:48:32;;;;;;;17.50;10.87;;;12.30;92.30;;;;;;6093315;23;20548;-75
2023/04/03 03:51:02;;;;;;;18.13;11.10;;;12.30;92.20;;;;;;6094386;23;20170;-75
2023/04/03 03:53:30;;;;;;;16.17;10.10;;;12.30;92.20;;;;;;6095315;23;20201;-75
2023/04/03 03:55:58;;;;;;;13.63;9.73;;;12.30;92.20;;;;;;6096088;23;20182;-75
2023/04/03 03:58:27;;;;;;;14.00;9.67;;;12.30;92.10;;;;;;6094540;23;20229;-75
2023/04/03 04:00:55;;;;;;;15.53;9.47;;;12.20;92.10;;;;;;6095655;23;20178;-76
2023/04/03 04:03:24;;;;;;;13.73;9.77;;;12.20;92.10;;;;;;6094127;23;20498;-76
2023/04/03 04:05:52;;;;;;;17.63;10.23;;;12.20;92.10;;;;;;6093832;23;20205;-76
2023/04/03 04:08:22;;;;;;;17.13;9.63;;;12.20;92.10;;;;;;6092879;23;20174;-76
2023/04/03 04:10:51;;;;;;;15.97;9.40;;;12.20;92.00;;;;;;6094892;23;20174;-75
2023/04/03 04:13:19;;;;;;;14.80;9.70;;;12.20;92.00;;;;;;6091330;23;21103;-76
2023/04/03 04:15:47;;;;;;;16.77;9.30;;;12.20;92.00;;;;;;6093428;23;20534;-75
2023/04/03 04:18:16;;;;;;;16.70;9.53;;;12.20;92.00;;;;;;6090640;23;20209;-77
2023/04/03 04:20:46;;;;;;;18.40;10.80;;;12.20;92.00;;;;;;6096511;23;20228;-75
2023/04/03 04:23:14;;;;;;;15.40;9.27;;;12.20;92.00;;;;;;6096212;23;20241;-75
2023/04/03 04:25:45;;;;;;;15.63;9.30;;;12.30;92.10;;;;;;6093376;23;20230;-75
2023/04/03 04:28:14;;;;;;;14.40;8.70;;;12.30;92.20;;;;;;6093434;23;20166;-75
2023/04/03 04:30:42;;;;;;;20.77;9.57;;;12.30;92.40;;;;;;6095059;23;20170;-76
2023/04/03 04:33:11;;;;;;;15.63;9.70;;;12.40;92.60;;;;;;6092153;23;20686;-76
2023/04/03 04:35:39;;;;;;;14.60;9.00;;;12.40;92.80;;;;;;6096399;23;20357;-76
2023/04/03 04:38:08;;;;;;;17.10;9.13;;;12.40;93.40;;;;;;6094344;23;20174;-75
2023/04/03 04:40:37;;;;;;;13.80;8.63;;;12.50;93.40;;;;;;6096230;23;20227;-76
2023/04/03 04:43:07;;;;;;;17.93;10.27;;;12.60;93.70;;;;;;6095122;23;20261;-76
2023/04/03 04:45:35;;;;;;;14.73;9.50;;;12.60;94.20;;;;;;6091524;23;20233;-75
2023/04/03 04:48:04;;;;;;;16.50;9.27;;;12.70;94.50;;;;;;6092771;23;20628;-76
2023/04/03 04:50:33;;;;;;;16.60;10.47;;;12.70;94.30;;;;;;6096013;23;20204;-75
2023/04/03 04:53:01;;;;;;;17.23;10.10;;;12.80;94.50;;;;;;6094794;23;20236;-76
2023/04/03 04:55:29;;;;;;;15.20;9.87;;;12.90;94.70;;;;;;6093817;23;20210;-76
2023/04/03 04:57:58;;;;;;;16.37;10.40;;;12.90;94.90;;;;;;6092129;23;20496;-76
2023/04/03 05:00:28;;;;;;;14.87;9.57;;;12.90;94.90;;;;;;6095900;23;20241;-76
2023/04/03 05:02:56;;;;;;;16.30;9.60;;;12.90;95.40;;;;;;6092435;23;20177;-81
2023/04/03 05:05:24;;;;;;;14.73;9.47;;;13.00;95.20;;;;;;6093120;23;20170;-81
2023/04/03 05:07:53;;;;;;;14.60;9.33;;;13.00;95.10;;;;;;6092944;23;20177;-81
2023/04/03 05:10:21;;;;;;;15.13;9.63;;;13.10;95.00;;;;;;6090404;23;20182;-81
2023/04/03 05:12:49;;;;;;;14.77;8.17;;;13.10;95.20;;;;;;6090727;23;20274;-81
2023/04/03 05:15:18;;;;;;;13.47;8.13;;;13.20;95.00;;;;;;6092858;23;20679;-80
2023/04/03 05:17:48;;;;;;;13.53;8.13;;;13.20;95.00;;;;;;6092538;23;20182;-80
2023/04/03 05:20:16;;;;;;;12.97;8.00;;;13.20;94.90;;;;;;6091519;23;20174;-80
2023/04/03 05:22:45;;;;;;;12.90;7.93;;;13.30;94.80;;;;;;6093902;23;20178;-81
2023/04/03 05:25:13;;;;;;;12.67;8.10;;;13.30;95.20;;;;;;6094048;23;20652;-80
2023/04/03 05:27:41;;;;;;;17.03;7.40;;;13.40;94.80;;;;;;6091351;23;20241;-81
2023/04/03 05:30:10;;;;;;;12.87;7.80;;;13.40;94.70;;;;;;6092904;23;20174;-81
2023/04/03 05:32:38;;;;;;;11.10;7.27;;;13.40;94.60;;;;;;6093161;23;20200;-77
2023/04/03 05:35:09;;;;;;;11.90;7.40;;;13.50;94.60;;;;;;6093300;23;20170;-77
2023/04/03 05:37:38;;;;;;;12.30;7.10;;;13.50;94.60;;;;;;6091411;23;20241;-76
2023/04/03 05:40:09;;;;;;;12.13;7.40;;;13.60;94.40;;;;;;6092312;23;20275;-78
2023/04/03 05:42:37;;;;;;;11.53;7.23;;;13.50;94.30;;;;;;6092734;23;21067;-78
2023/04/03 05:45:07;;;;;;;12.37;6.97;;;13.60;94.30;;;;;;6092779;23;20608;-77
2023/04/03 05:47:35;;;;;;;9.27;5.70;;;13.60;94.30;;;;;;6093712;23;20185;-79
2023/04/03 05:50:04;;;;;;;11.40;6.20;;;13.60;94.30;;;;;;6092389;23;20258;-77
2023/04/03 05:52:37;;;;;;;9.97;6.53;;;13.70;94.20;;;;;;6093381;23;20726;-78
2023/04/03 05:55:06;;;;;;;7.47;5.63;;;13.80;94.00;;;;;;6093975;23;20162;-78
2023/04/03 05:57:34;;;;;;;8.53;5.60;;;13.70;93.50;;;;;;6093152;23;20177;-78
2023/04/03 06:00:05;;;;;;;9.23;5.77;;;13.80;93.40;;;;;;6090775;23;20277;-76
2023/04/03 06:02:33;;;;;;;11.80;5.87;;;13.90;93.40;;;;;;6092225;23;20624;-79
2023/04/03 06:05:02;;;;;;;10.13;6.47;;;13.90;93.10;;;;;;6093270;23;20592;-78
2023/04/03 06:07:30;;;;;;;11.93;6.20;;;13.90;92.60;;;;;;6093910;23;20170;-77
2023/04/03 06:10:01;;;;;;;11.67;6.23;;;13.90;92.50;;;;;;6091616;23;20182;-79
2023/04/03 06:12:29;;;;;;;9.53;5.67;;;13.90;92.50;;;;;;6091819;23;20190;-77
2023/04/03 06:14:58;;;;;;;8.83;5.53;;;14.00;92.40;;;;;;6092565;23;20174;-82
2023/04/03 06:17:26;;;;;;;9.43;5.30;;;14.00;92.20;;;;;;6092569;23;20178;-76
2023/04/03 06:19:55;;;;;;;7.50;4.80;;;14.00;91.70;;;;;;6093333;23;20174;-76
2023/04/03 06:22:25;;;;;;;10.57;5.53;;;14.00;91.70;;;;;;6091102;23;20177;-78
2023/04/03 06:24:53;;;;;;;7.47;4.70;;;14.10;91.60;;;;;;6090787;23;20211;-77
2023/04/03 06:27:23;;;;;;;8.83;5.53;;;14.10;91.40;;;;;;6091328;23;20173;-76
2023/04/03 06:29:52;;;;;;;9.13;5.20;;;14.10;91.50;;;;;;6091085;23;20174;-78
2023/04/03 06:32:20;;;;;;;8.43;5.17;;;14.10;91.40;;;;;;6092147;23;20173;-77
2023/04/03 06:34:48;;;;;;;8.20;4.93;;;14.10;91.10;;;;;;6094445;23;20257;-76
2023/04/03 06:37:19;;;;;;;7.00;4.50;;;14.10;91.10;;;;;;6093209;23;20174;-77
2023/04/03 06:39:48;;;;;;;8.57;4.50;;;14.20;91.00;;;;;;6090706;23;20166;-77
2023/04/03 06:42:16;;;;;;;8.90;4.83;;;14.10;90.50;;;;;;6092586;23;20804;-76
2023/04/03 06:44:46;;;;;;;7.40;4.53;;;14.20;90.40;;;;;;6093036;23;20654;-77
2023/04/03 06:47:15;;;;;;;7.83;5.03;;;14.20;90.30;;;;;;6092438;23;20636;-77
2023/04/03 06:49:44;;;;;;;7.03;4.77;;;14.10;90.20;;;;;;6090238;23;20177;-77
2023/04/03 06:52:12;;;;;;;8.40;4.87;;;14.20;90.40;;;;;;6092209;23;20186;-76
2023/04/03 06:54:42;;;;;;;8.57;4.43;;;14.20;90.40;;;;;;6092307;23;20193;-76
2023/04/03 06:57:10;;;;;;;7.27;4.57;;;14.20;90.20;;;;;;6092325;23;20169;-76
2023/04/03 06:59:38;;;;;;;9.67;5.27;;;14.20;90.20;;;;;;6088410;23;20197;-77
2023/04/03 07:02:11;;;;;;;12.70;5.60;;;14.30;90.20;;;;;;6088720;23;20233;-76
2023/04/03 07:04:39;;;;;;;10.20;5.20;;;14.40;90.20;;;;;;6088466;23;20240;-75
2023/04/03 07:07:08;;;;;;;8.40;5.13;;;14.40;90.00;;;;;;6090947;23;20181;-75
2023/04/03 07:09:36;;;;;;;7.80;5.10;;;14.50;90.10;;;;;;6090778;23;20177;-76
2023/04/03 07:12:05;;;;;;;7.83;4.90;;;14.60;89.50;;;;;;6089608;23;20604;-74
2023/04/03 07:14:33;;;;;;;11.10;5.57;;;14.70;89.50;;;;;;6092575;23;20722;-75
2023/04/03 07:17:01;;;;;;;7.57;4.90;;;14.80;89.70;;;;;;6090370;23;20199;-75
2023/04/03 07:19:31;;;;;;;9.73;4.80;;;14.90;89.60;;;;;;6090344;23;20173;-75
2023/04/03 07:22:00;;;;;;;10.10;4.70;;;15.00;89.70;;;;;;6091262;23;20205;-75
2023/04/03 07:24:28;;;;;;;8.00;4.57;;;15.10;89.40;;;;;;6090523;23;20781;-75
2023/04/03 07:26:57;;;;;;;7.80;4.40;;;15.20;89.50;;;;;;6091803;23;20173;-76
2023/04/03 07:29:25;;;;;;;6.60;4.17;;;15.30;89.40;;;;;;6089146;23;20178;-73
2023/04/03 07:31:55;;;;;;;9.10;3.97;;;15.40;89.10;;;;;;6092033;23;20194;-73
2023/04/03 07:34:23;;;;;;;6.70;4.00;;;15.50;88.80;;;;;;6089250;23;20205;-76
2023/04/03 07:36:53;;;;;;;11.37;5.07;;;15.60;88.60;;;;;;6091493;23;20178;-74
2023/04/03 07:39:21;;;;;;;8.50;4.27;;;15.70;88.60;;;;;;6087992;23;20646;-75
2023/04/03 07:41:49;;;;;;;7.10;4.03;;;15.70;88.90;;;;;;6090229;23;20205;-76
2023/04/03 07:44:18;;;;;;;7.37;4.23;;;15.70;86.80;;;;;;6090931;23;20182;-76
2023/04/03 07:46:46;;;;;;;8.33;4.33;;;15.80;86.60;;;;;;6089078;23;20233;-76
2023/04/03 07:49:15;;;;;;;8.30;4.27;;;15.80;86.20;;;;;;6089525;23;20541;-76
2023/04/03 07:51:43;;;;;;;9.43;4.47;;;15.80;85.80;;;;;;6090762;23;20181;-77
2023/04/03 07:54:13;;;;;;;7.67;4.20;;;15.90;85.80;;;;;;6090346;23;20197;-76
2023/04/03 07:56:42;;;;;;;7.33;4.10;;;15.90;85.20;;;;;;6094791;23;20173;-77
2023/04/03 07:59:11;;;;;;;8.67;4.40;;;15.90;85.10;;;;;;6093677;23;20205;-75
2023/04/03 08:01:39;;;;;;;9.63;4.47;;;16.00;85.10;;;;;;6093946;23;20178;-76
2023/04/03 08:04:08;;;;;;;17.90;8.93;;;16.00;85.60;;;;;;6092257;23;20262;-76
2023/04/03 08:06:36;;;;;;;8.80;4.93;;;16.00;85.20;;;;;;6094751;23;20873;-76
2023/04/03 08:09:15;;;;;;;8.20;4.67;;;16.00;84.50;;;;;;6094079;23;20250;-76
2023/04/03 08:11:44;;;;;;;12.23;6.80;;;16.00;84.30;;;;;;6094682;23;20164;-77
2023/04/03 08:14:16;;;;;;;13.33;6.80;;;16.00;84.50;;;;;;6094796;23;20177;-76
2023/04/03 08:16:46;;;;;;;9.80;5.30;;;16.10;84.40;;;;;;6091949;23;20165;-77
2023/04/03 08:19:15;;;;;;;12.77;5.80;;;16.20;84.30;;;;;;6093492;23;20523;-76
2023/04/03 08:21:55;;;;;;;7.93;4.40;;;16.20;84.40;;;;;;6092099;23;20185;-77
2023/04/03 08:24:25;;;;;;;8.47;4.83;;;16.30;84.30;;;;;;6093559;23;20260;-76
2023/04/03 08:26:53;;;;;;;9.13;4.40;;;16.30;83.60;;;;;;6095130;23;20192;-77
2023/04/03 08:29:22;;;;;;;7.80;4.80;;;16.40;83.50;;;;;;6091261;23;20705;-76
2023/04/03 08:31:50;;;;;;;11.93;6.20;;;16.50;83.60;;;;;;6092345;23;20546;-77
2023/04/03 08:34:19;;;;;;;8.23;5.17;;;16.50;83.40;;;;;;6091669;23;20177;-74
2023/04/03 08:36:48;;;;;;;12.27;5.27;;;16.60;83.40;;;;;;6092514;23;20177;-75
2023/04/03 08:39:16;;;;;;;7.90;4.53;;;16.70;83.20;;;;;;6094003;23;20205;-74
2023/04/03 08:41:47;;;;;;;9.30;4.93;;;16.80;83.50;;;;;;6096931;23;20181;-76
2023/04/03 08:44:24;;;;;;;9.83;4.50;;;16.80;83.40;;;;;;6090445;23;20208;-78
2023/04/03 08:47:05;;;;;;;8.43;4.70;;;16.90;82.10;;;;;;6094320;23;20168;-75
2023/04/03 08:49:37;;;;;;;8.17;4.77;;;16.90;81.80;;;;;;6094617;23;20216;-74
2023/04/03 08:52:10;;;;;;;9.50;5.37;;;16.90;81.00;;;;;;6096350;23;20182;-75
2023/04/03 08:54:49;;;;;;;12.70;4.70;;;17.00;80.90;;;;;;6094479;23;20162;-76
2023/04/03 08:57:21;;;;;;;9.17;4.60;;;17.10;80.80;;;;;;6094900;23;20162;-76
2023/04/03 08:59:49;;;;;;;7.73;4.60;;;17.10;81.20;;;;;;6094695;23;20205;-75
2023/04/03 09:02:27;;;;;;;8.77;4.73;;;17.20;81.50;;;;;;6094136;23;20173;-78
2023/04/03 09:04:56;;;;;;;9.90;4.27;;;17.30;81.50;;;;;;6092124;23;20658;-76
2023/04/03 09:07:34;;;;;;;7.10;4.17;;;17.30;81.30;;;;;;6094882;23;20174;-78
2023/04/03 09:10:03;;;;;;;11.10;4.23;;;17.40;81.10;;;;;;6093603;23;20221;-76
2023/04/03 09:12:38;;;;;;;8.43;4.80;;;17.50;80.30;;;;;;6093807;23;20170;-77
2023/04/03 09:15:17;;;;;;;12.57;5.07;;;17.60;80.80;;;;;;6093870;23;20165;-76
2023/04/03 09:18:03;;;;;;;7.73;4.53;;;17.70;80.80;;;;;;6092538;23;20492;-81
2023/04/03 09:20:44;;;;;;;8.27;4.90;;;17.80;80.20;;;;;;6090607;23;20241;-77
2023/04/03 09:23:25;;;;;;;8.60;4.87;;;17.90;80.20;;;;;;6091079;23;20158;-76
2023/04/03 09:26:03;;;;;;;11.77;6.67;;;18.00;79.70;;;;;;6090998;23;20721;-76
2023/04/03 09:28:38;;;;;;;22.67;13.70;;;18.10;79.70;;;;;;6093282;23;20221;-75
2023/04/03 09:31:23;;;;;;;8.93;4.80;;;18.20;79.30;;;;;;6093957;23;20196;-77
2023/04/03 09:33:55;;;;;;;6.47;4.23;;;18.20;79.10;;;;;;6092111;23;20514;-77
2023/04/03 09:36:48;;;;;;;7.20;4.50;;;18.30;78.00;;;;;;6092411;23;20667;-77
2023/04/03 09:39:19;;;;;;;8.13;4.80;;;18.40;77.50;;;;;;6063017;23;20477;-76
2023/04/03 09:42:06;;;;;;;8.50;5.70;;;18.40;77.50;;;;;;6093860;23;20628;-77
2023/04/03 09:44:39;;;;;;;6.80;4.45;;;18.50;77.90;;;;;;6092467;23;20548;-78
2023/04/03 09:47:24;;;;;;;6.47;4.27;;;18.60;76.90;;;;;;6092343;23;20245;-79
2023/04/03 09:50:09;;;;;;;7.97;4.23;;;18.60;76.30;;;;;;6093582;23;20548;-77
2023/04/03 09:52:38;;;;;;;5.17;3.33;;;18.60;76.60;;;;;;6092614;23;20166;-78
2023/04/03 09:55:09;;;;;;;5.85;2.97;;;18.60;74.60;;;;;;6090531;23;20162;-78
2023/04/03 09:57:38;;;;;;;5.80;3.23;;;18.70;73.80;;;;;;6091114;23;20229;-77
2023/04/03 10:00:22;;;;;;;6.13;3.77;;;18.70;73.40;;;;;;6093336;23;20569;-78
2023/04/03 10:02:54;;;;;;;5.57;3.60;;;18.70;73.30;;;;;;6092646;23;20162;-77
2023/04/03 10:05:33;;;;;;;7.00;3.90;;;18.70;73.10;;;;;;6093882;23;20194;-77
2023/04/03 10:08:24;;;;;;;5.18;3.50;;;18.80;73.90;;;;;;6092994;23;20603;-77
2023/04/03 10:11:12;;;;;;;6.45;3.65;;;18.80;73.50;;;;;;6093915;23;20181;-78
2023/04/03 10:13:55;;;;;;;7.45;4.40;;;18.90;73.00;;;;;;6091310;23;21098;-76
2023/04/03 10:16:28;;;;;;;7.03;4.20;;;18.90;73.50;;;;;;6091431;23;20497;-76
2023/04/03 10:19:13;;;;;;;6.13;4.07;;;19.00;73.50;;;;;;6091057;23;20607;-78
2023/04/03 10:21:51;;;;;;;9.32;3.92;;;19.00;73.60;;;;;;6092602;23;20193;-76
2023/04/03 10:24:26;;;;;;;6.38;3.78;;;19.10;73.70;;;;;;6064529;23;20174;-79
2023/04/03 10:27:03;;;;;;;8.15;3.85;;;19.10;73.50;;;;;;6091449;23;20189;-77
2023/04/03 10:29:40;;;;;;;6.63;4.18;;;19.20;73.30;;;;;;6094902;23;20221;-77
2023/04/03 10:32:32;;;;;;;6.03;3.58;;;19.30;73.40;;;;;;6092937;23;20162;-77
2023/04/03 10:35:09;;;;;;;9.80;3.95;;;19.30;73.10;;;;;;6089534;23;20616;-76
2023/04/03 10:37:45;;;;;;;9.70;4.95;;;19.40;73.50;;;;;;6091643;23;20162;-77
2023/04/03 10:40:30;;;;;;;7.93;3.97;;;19.40;72.90;;;;;;6090880;23;20166;-77
2023/04/03 10:43:05;;;;;;;6.45;4.07;;;19.50;73.80;;;;;;6092244;23;20709;-76
2023/04/03 10:45:50;;;;;;;7.32;4.47;;;19.50;73.00;;;;;;6091027;23;20659;-77
2023/04/03 10:48:32;;;;;;;7.82;3.65;;;19.60;72.90;;;;;;6090490;23;20178;-77
2023/04/03 10:51:12;;;;;;;6.05;3.65;;;19.70;72.80;;;;;;6091081;23;20162;-78
2023/04/03 10:53:45;;;;;;;9.45;3.70;;;19.70;72.50;;;;;;6095450;23;20530;-76
2023/04/03 10:56:18;;;;;;;5.25;3.45;;;19.70;71.10;;;;;;6093334;23;20158;-77
2023/04/03 10:58:54;;;;;;;8.55;4.80;;;19.70;71.00;;;;;;6092900;23;20260;-76
2023/04/03 11:01:25;;;;;;;7.68;3.78;;;19.70;71.20;;;;;;6092893;23;20185;-77
2023/04/03 11:03:58;;;;;;;16.88;4.55;;;19.80;71.10;;;;;;6094391;23;20166;-76
2023/04/03 11:06:32;;;;;;;6.43;3.50;;;19.80;71.20;;;;;;6090362;23;20268;-77
2023/04/03 11:09:06;;;;;;;8.35;4.28;;;19.80;70.80;;;;;;6094183;23;20611;-77
2023/04/03 11:11:38;;;;;;;6.03;3.80;;;19.90;70.80;;;;;;6093995;23;20549;-77
2023/04/03 11:14:16;;;;;;;6.53;3.20;;;19.80;71.20;;;;;;6092811;23;20170;-77
2023/04/03 11:16:47;;;;;;;6.40;4.00;;;19.80;70.90;;;;;;6091562;23;20164;-77
2023/04/03 11:19:35;;;;;;;7.50;4.35;;;19.80;71.30;;;;;;6093330;23;20607;-77
2023/04/03 11:22:10;;;;;;;7.50;4.57;;;19.80;71.30;;;;;;6093979;23;20170;-76
2023/04/03 11:24:42;;;;;;;8.77;4.75;;;19.90;71.50;;;;;;6094439;23;20233;-77
2023/04/03 11:27:22;;;;;;;7.57;4.82;;;19.90;71.50;;;;;;6092667;23;20248;-76
2023/04/03 11:29:53;;;;;;;7.10;4.60;;;19.90;71.50;;;;;;6094258;23;20162;-77
2023/04/03 11:32:50;;;;;;;7.65;4.85;;;19.90;70.60;;;;;;6095711;23;20164;-76
2023/04/03 11:35:22;;;;;;;8.57;4.57;;;19.90;70.50;;;;;;6092810;23;20485;-77
2023/04/03 11:37:53;;;;;;;9.00;4.35;;;20.10;71.20;;;;;;6092138;23;20221;-76
2023/04/03 11:40:26;;;;;;;7.90;4.75;;;20.10;70.30;;;;;;6097411;23;20162;-77
2023/04/03 11:43:03;;;;;;;10.80;5.43;;;20.20;70.40;;;;;;6094849;23;20465;-76
2023/04/03 11:45:38;;;;;;;8.93;5.20;;;20.30;70.10;;;;;;6093416;23;20724;-76
2023/04/03 11:48:31;;;;;;;7.35;4.57;;;20.20;69.90;;;;;;6094245;23;20162;-78
2023/04/03 11:51:02;;;;;;;6.38;4.00;;;20.20;69.90;;;;;;6095578;23;20579;-78
2023/04/03 11:53:34;;;;;;;9.60;4.75;;;20.20;69.40;;;;;;6097211;23;20174;-76
2023/04/03 11:56:31;;;;;;;7.53;4.85;;;20.20;69.40;;;;;;6093267;23;20169;-77
2023/04/03 11:59:25;;;;;;;7.78;4.65;;;20.20;69.10;;;;;;6091501;23;20197;-77
2023/04/03 12:01:54;;;;;;;9.50;4.85;;;20.20;68.80;;;;;;6091632;23;20194;-77
2023/04/03 12:04:25;;;;;;;7.57;4.38;;;20.20;69.40;;;;;;6092725;23;20174;-77
2023/04/03 12:07:15;;;;;;;9.50;4.63;;;20.10;69.20;;;;;;6090382;23;20272;-76
2023/04/03 12:10:19;;;;;;;10.27;4.40;;;20.10;69.80;;;;;;6091178;23;20166;-75
2023/04/03 12:13:03;;;;;;;6.47;4.25;;;20.00;69.70;;;;;;6090486;23;20162;-77
2023/04/03 12:15:52;;;;;;;8.32;4.28;;;20.00;69.60;;;;;;6090919;23;20177;-77
2023/04/03 12:22:21;;;;;;;6.55;4.13;;;20.10;69.90;;;;;;6051078;23;20266;-76
2023/04/03 12:24:52;;;;;;;7.85;4.47;;;20.00;68.40;;;;;;6093002;23;20165;-73
2023/04/03 12:27:35;;;;;;;7.65;4.20;;;19.90;68.80;;;;;;6092850;23;20196;-74
2023/04/03 12:30:17;;;;;;;8.13;4.22;;;19.90;69.30;;;;;;6092429;23;20464;-73
2023/04/03 12:33:16;;;;;;;6.95;4.28;;;19.80;69.80;;;;;;6092361;23;20214;-75
2023/04/03 12:35:56;;;;;;;7.05;4.38;;;19.80;69.80;;;;;;6094947;23;20164;-75
2023/04/03 12:38:57;;;;;;;7.93;4.68;;;19.80;70.10;;;;;;6092349;23;20169;-75
2023/04/03 12:41:37;;;;;;;6.05;3.22;;;19.70;69.40;;;;;;6093486;23;20233;-75
2023/04/03 12:44:25;;;;;;;6.60;4.25;;;19.80;69.70;;;;;;6093654;23;20165;-75
2023/04/03 12:46:54;;;;;;;6.45;4.00;;;19.70;69.70;;;;;;6092535;23;20221;-75
2023/04/03 12:49:37;;;;;;;7.53;4.22;;;19.80;69.90;;;;;;6094028;23;20658;-74
2023/04/03 12:52:17;;;;;;;10.55;4.70;;;19.70;69.90;;;;;;6092663;23;20251;-75
2023/04/03 12:54:48;;;;;;;7.15;4.38;;;19.70;70.40;;;;;;6092522;23;20162;-75
2023/04/03 12:57:19;;;;;;;6.10;3.90;;;19.70;70.50;;;;;;6093048;23;20174;-76
2023/04/03 12:59:48;;;;;;;7.63;4.43;;;19.60;70.70;;;;;;6091411;23;20198;-74
2023/04/03 13:02:23;;;;;;;8.02;4.78;;;19.70;70.50;;;;;;6092643;23;20182;-75
2023/04/03 13:04:54;;;;;;;6.88;4.10;;;19.60;70.70;;;;;;6091151;23;20694;-73
2023/04/03 13:07:27;;;;;;;7.43;4.22;;;19.50;70.80;;;;;;6090034;23;20189;-75